Terminal Aerodrome Forecast
Issued by NWS Jackson, MS

Home | Current Version | Previous Version | Text Only | Print | Product List | Glossary On
Versions: 1 2 3 4 5 6 7 8 9 10 11 12 13
000
FTUS44 KMEG 161721
TAFTUP
TAF
KTUP 161721Z 1618/1718 36013G22KT P6SM SKC
     FM170000 03006KT P6SM SKC
     FM171400 09006KT P6SM SKC=

USA.gov is the U.S. government's official web portal to all federal, state and local government web resources and services.